createdAt,value
2022-08-27T00:00:24.191Z,20.86
2022-08-27T00:10:53.396Z,20.72
2022-08-27T00:21:22.432Z,20.63
2022-08-27T00:31:53.363Z,20.52
2022-08-27T00:42:23.157Z,20.40
2022-08-27T00:52:58.446Z,20.37
2022-08-27T01:03:31.103Z,20.35
2022-08-27T01:14:01.420Z,20.22
2022-08-27T01:24:37.459Z,20.15
2022-08-27T01:35:10.869Z,20.10
2022-08-27T01:45:49.579Z,20.07
2022-08-27T01:56:18.669Z,20.06
2022-08-27T02:06:47.541Z,19.89
2022-08-27T02:17:16.485Z,19.80
2022-08-27T02:27:46.077Z,19.76
2022-08-27T02:38:15.685Z,19.58
2022-08-27T02:48:45.283Z,19.45
2022-08-27T02:59:15.444Z,19.47
2022-08-27T03:09:44.428Z,19.44
2022-08-27T03:20:14.367Z,19.24
2022-08-27T03:30:46.521Z,19.34
2022-08-27T03:41:18.404Z,19.27
2022-08-27T03:51:47.677Z,19.40
2022-08-27T04:02:17.401Z,19.37
2022-08-27T04:12:46.452Z,19.30
2022-08-27T04:23:15.579Z,19.25
2022-08-27T04:33:51.159Z,19.21
2022-08-27T04:44:20.537Z,19.09
2022-08-27T04:54:49.430Z,18.61
2022-08-27T05:05:19.139Z,18.59
2022-08-27T05:15:48.522Z,18.85
2022-08-27T05:26:17.692Z,19.17
2022-08-27T05:36:48.537Z,19.40
2022-08-27T05:47:18.248Z,19.97
2022-08-27T05:57:47.280Z,20.75
2022-08-27T06:08:16.115Z,21.64
2022-08-27T06:18:47.255Z,22.43
2022-08-27T06:29:16.537Z,23.15
2022-08-27T06:39:46.636Z,23.74
2022-08-27T06:50:19.712Z,23.96
2022-08-27T07:00:49.751Z,24.22
2022-08-27T07:11:18.771Z,24.54
2022-08-27T07:21:47.997Z,24.47
2022-08-27T07:32:17.277Z,24.60
2022-08-27T07:43:03.746Z,25.21
2022-08-27T07:53:32.941Z,25.58
2022-08-27T08:04:01.903Z,25.82
2022-08-27T08:14:31.855Z,25.90
2022-08-27T08:25:00.988Z,26.09
2022-08-27T08:35:40.513Z,26.16
2022-08-27T08:46:29.122Z,26.32
2022-08-27T08:57:03.563Z,26.54
2022-08-27T09:07:37.801Z,26.40
2022-08-27T09:18:14.464Z,26.31
2022-08-27T09:29:01.930Z,26.52
2022-08-27T09:39:35.582Z,26.71
2022-08-27T09:50:11.343Z,26.78
2022-08-27T10:00:42.757Z,26.97
2022-08-27T10:11:19.307Z,27.15
2022-08-27T10:21:56.698Z,27.23
2022-08-27T10:32:44.239Z,27.26
2022-08-27T10:43:34.073Z,27.23
2022-08-27T10:54:12.271Z,27.28
2022-08-27T11:04:48.762Z,27.19
2022-08-27T11:15:31.761Z,27.15
2022-08-27T11:26:02.318Z,27.24
2022-08-27T11:37:23.628Z,27.27
2022-08-27T11:47:51.088Z,27.30
2022-08-27T11:58:34.289Z,27.43
2022-08-27T12:09:27.028Z,27.36
2022-08-27T12:20:27.692Z,27.43
2022-08-27T12:30:55.054Z,27.26
2022-08-27T12:41:44.312Z,26.87
2022-08-27T13:13:52.028Z,26.33
2022-08-27T13:24:37.473Z,26.31
2022-08-27T13:35:05.022Z,26.16
2022-08-27T13:45:36.511Z,26.10
2022-08-27T13:56:02.523Z,26.17
2022-08-27T14:06:48.305Z,26.14
2022-08-27T14:28:36.019Z,26.04
2022-08-27T14:39:07.209Z,26.07
2022-08-27T14:49:36.166Z,26.11
2022-08-27T15:00:12.292Z,26.11
2022-08-27T15:10:38.011Z,26.14
2022-08-27T15:21:07.504Z,26.17
2022-08-27T15:31:40.079Z,26.21
2022-08-27T15:42:16.821Z,26.18
2022-08-27T15:52:41.156Z,26.24
2022-08-27T16:03:14.658Z,26.25
2022-08-27T16:13:41.940Z,26.28
2022-08-27T16:24:12.673Z,26.25
2022-08-27T16:34:42.903Z,26.20
2022-08-27T16:45:14.492Z,26.20
2022-08-27T16:55:44.143Z,26.27
2022-08-27T17:06:16.726Z,26.20
2022-08-27T17:16:45.410Z,26.07
2022-08-27T17:27:20.674Z,25.94
2022-08-27T17:37:46.885Z,25.83
2022-08-27T17:48:19.171Z,25.74
2022-08-27T17:58:47.935Z,25.60
2022-08-27T18:09:21.848Z,25.46
2022-08-27T18:19:51.186Z,25.37
2022-08-27T18:30:23.010Z,25.27
2022-08-27T18:41:05.732Z,25.11
2022-08-27T18:51:55.055Z,24.96
2022-08-27T19:02:24.242Z,24.87
2022-08-27T19:12:56.735Z,24.78
2022-08-27T19:23:23.970Z,24.72
2022-08-27T19:33:58.301Z,24.55
2022-08-27T19:44:26.893Z,24.50
2022-08-27T19:55:13.171Z,24.43
2022-08-27T20:05:56.135Z,24.36
2022-08-27T20:16:29.335Z,24.32
2022-08-27T20:26:57.330Z,24.31
2022-08-27T20:37:28.472Z,24.31
2022-08-27T20:47:58.500Z,24.30
2022-08-27T21:09:01.789Z,24.09
2022-08-27T21:19:32.388Z,24.02
2022-08-27T21:30:00.818Z,23.88
2022-08-27T21:40:33.420Z,23.67
2022-08-27T21:51:01.903Z,23.47
2022-08-27T22:01:33.143Z,23.30
2022-08-27T22:12:03.907Z,23.11
2022-08-27T22:22:36.410Z,22.99
2022-08-27T22:33:04.831Z,22.87
2022-08-27T22:43:35.841Z,22.78
2022-08-27T22:54:05.963Z,22.57
2022-08-27T23:04:54.638Z,22.56
2022-08-27T23:15:30.779Z,22.40
2022-08-27T23:26:28.696Z,22.29
2022-08-27T23:37:08.722Z,22.26
2022-08-27T23:47:39.389Z,22.20
2022-08-27T23:58:08.520Z,22.27
